sensor_id;sensor_type;location;lat;lon;timestamp;P1;durP1;ratioP1;P2;durP2;ratioP2
33993;SDS011;20673;48.980;8.138;2023-06-26T00:02:12;9.43;;;8.33;;
33993;SDS011;20673;48.980;8.138;2023-06-26T00:04:38;11.20;;;8.50;;
33993;SDS011;20673;48.980;8.138;2023-06-26T00:07:05;9.23;;;8.33;;
33993;SDS011;20673;48.980;8.138;2023-06-26T00:09:31;9.63;;;7.80;;
33993;SDS011;20673;48.980;8.138;2023-06-26T00:11:58;9.03;;;8.13;;
33993;SDS011;20673;48.980;8.138;2023-06-26T00:14:24;10.27;;;8.33;;
33993;SDS011;20673;48.980;8.138;2023-06-26T00:16:51;10.03;;;7.93;;
33993;SDS011;20673;48.980;8.138;2023-06-26T00:19:17;8.83;;;7.90;;
33993;SDS011;20673;48.980;8.138;2023-06-26T00:21:44;11.43;;;8.17;;
33993;SDS011;20673;48.980;8.138;2023-06-26T00:24:12;8.73;;;7.83;;
33993;SDS011;20673;48.980;8.138;2023-06-26T00:26:39;10.17;;;8.30;;
33993;SDS011;20673;48.980;8.138;2023-06-26T00:29:06;9.83;;;8.67;;
33993;SDS011;20673;48.980;8.138;2023-06-26T00:31:32;8.80;;;7.78;;
33993;SDS011;20673;48.980;8.138;2023-06-26T00:33:58;9.40;;;7.72;;
33993;SDS011;20673;48.980;8.138;2023-06-26T00:36:24;10.10;;;8.10;;
33993;SDS011;20673;48.980;8.138;2023-06-26T00:38:51;11.00;;;7.80;;
33993;SDS011;20673;48.980;8.138;2023-06-26T00:41:21;9.57;;;7.77;;
33993;SDS011;20673;48.980;8.138;2023-06-26T00:43:47;9.67;;;8.10;;
33993;SDS011;20673;48.980;8.138;2023-06-26T00:46:13;10.73;;;8.20;;
33993;SDS011;20673;48.980;8.138;2023-06-26T00:48:41;9.70;;;8.00;;
33993;SDS011;20673;48.980;8.138;2023-06-26T00:51:11;10.50;;;8.33;;
33993;SDS011;20673;48.980;8.138;2023-06-26T00:53:38;9.13;;;8.03;;
33993;SDS011;20673;48.980;8.138;2023-06-26T00:56:05;10.10;;;8.07;;
33993;SDS011;20673;48.980;8.138;2023-06-26T00:58:32;9.43;;;8.37;;
33993;SDS011;20673;48.980;8.138;2023-06-26T01:00:58;10.13;;;8.40;;
33993;SDS011;20673;48.980;8.138;2023-06-26T01:03:26;9.83;;;8.83;;
33993;SDS011;20673;48.980;8.138;2023-06-26T01:05:52;9.60;;;7.57;;
33993;SDS011;20673;48.980;8.138;2023-06-26T01:08:23;9.13;;;8.00;;
33993;SDS011;20673;48.980;8.138;2023-06-26T01:10:51;9.63;;;8.23;;
33993;SDS011;20673;48.980;8.138;2023-06-26T01:13:17;9.40;;;8.17;;
33993;SDS011;20673;48.980;8.138;2023-06-26T01:15:44;9.43;;;7.87;;
33993;SDS011;20673;48.980;8.138;2023-06-26T01:18:12;9.13;;;7.87;;
33993;SDS011;20673;48.980;8.138;2023-06-26T01:20:40;9.80;;;7.73;;
33993;SDS011;20673;48.980;8.138;2023-06-26T01:28:45;9.27;;;7.97;;
33993;SDS011;20673;48.980;8.138;2023-06-26T01:31:14;8.57;;;7.53;;
33993;SDS011;20673;48.980;8.138;2023-06-26T01:33:41;9.67;;;7.90;;
33993;SDS011;20673;48.980;8.138;2023-06-26T01:36:08;11.77;;;9.23;;
33993;SDS011;20673;48.980;8.138;2023-06-26T01:38:35;9.97;;;8.33;;
33993;SDS011;20673;48.980;8.138;2023-06-26T01:41:02;8.80;;;7.90;;
33993;SDS011;20673;48.980;8.138;2023-06-26T01:43:42;9.53;;;8.30;;
33993;SDS011;20673;48.980;8.138;2023-06-26T01:46:40;12.07;;;9.53;;
33993;SDS011;20673;48.980;8.138;2023-06-26T01:52:25;10.37;;;8.13;;
33993;SDS011;20673;48.980;8.138;2023-06-26T01:55:19;9.13;;;8.13;;
33993;SDS011;20673;48.980;8.138;2023-06-26T01:57:47;13.80;;;10.17;;
33993;SDS011;20673;48.980;8.138;2023-06-26T02:00:14;11.83;;;10.00;;
33993;SDS011;20673;48.980;8.138;2023-06-26T02:02:46;9.93;;;8.68;;
33993;SDS011;20673;48.980;8.138;2023-06-26T02:05:12;10.50;;;8.73;;
33993;SDS011;20673;48.980;8.138;2023-06-26T02:07:39;11.30;;;9.50;;
33993;SDS011;20673;48.980;8.138;2023-06-26T02:10:06;11.20;;;9.77;;
33993;SDS011;20673;48.980;8.138;2023-06-26T02:12:34;12.43;;;10.40;;
33993;SDS011;20673;48.980;8.138;2023-06-26T02:15:02;11.30;;;9.70;;
33993;SDS011;20673;48.980;8.138;2023-06-26T02:17:28;11.40;;;9.87;;
33993;SDS011;20673;48.980;8.138;2023-06-26T02:19:55;11.15;;;9.38;;
33993;SDS011;20673;48.980;8.138;2023-06-26T02:22:21;13.43;;;10.27;;
33993;SDS011;20673;48.980;8.138;2023-06-26T02:24:47;11.30;;;9.50;;
33993;SDS011;20673;48.980;8.138;2023-06-26T02:27:14;12.50;;;10.55;;
33993;SDS011;20673;48.980;8.138;2023-06-26T02:29:40;12.90;;;10.38;;
33993;SDS011;20673;48.980;8.138;2023-06-26T02:32:08;10.80;;;9.70;;
33993;SDS011;20673;48.980;8.138;2023-06-26T02:34:34;12.13;;;10.65;;
33993;SDS011;20673;48.980;8.138;2023-06-26T02:37:01;11.73;;;9.70;;
33993;SDS011;20673;48.980;8.138;2023-06-26T02:39:28;10.28;;;8.85;;
33993;SDS011;20673;48.980;8.138;2023-06-26T02:41:54;12.45;;;9.50;;
33993;SDS011;20673;48.980;8.138;2023-06-26T02:44:20;9.23;;;8.23;;
33993;SDS011;20673;48.980;8.138;2023-06-26T02:46:46;9.93;;;8.67;;
33993;SDS011;20673;48.980;8.138;2023-06-26T02:49:12;10.60;;;9.00;;
33993;SDS011;20673;48.980;8.138;2023-06-26T02:51:39;12.03;;;9.53;;
33993;SDS011;20673;48.980;8.138;2023-06-26T02:54:05;11.90;;;9.17;;
33993;SDS011;20673;48.980;8.138;2023-06-26T02:56:31;9.15;;;8.08;;
33993;SDS011;20673;48.980;8.138;2023-06-26T02:58:57;10.70;;;8.98;;
33993;SDS011;20673;48.980;8.138;2023-06-26T03:01:24;10.78;;;8.83;;
33993;SDS011;20673;48.980;8.138;2023-06-26T03:03:50;12.30;;;9.87;;
33993;SDS011;20673;48.980;8.138;2023-06-26T03:06:18;11.93;;;9.53;;
33993;SDS011;20673;48.980;8.138;2023-06-26T03:08:44;14.50;;;10.17;;
33993;SDS011;20673;48.980;8.138;2023-06-26T03:11:10;12.75;;;8.33;;
33993;SDS011;20673;48.980;8.138;2023-06-26T03:13:36;12.05;;;9.05;;
33993;SDS011;20673;48.980;8.138;2023-06-26T03:16:03;11.40;;;9.05;;
33993;SDS011;20673;48.980;8.138;2023-06-26T03:18:30;10.13;;;8.48;;
33993;SDS011;20673;48.980;8.138;2023-06-26T03:20:56;12.50;;;8.95;;
33993;SDS011;20673;48.980;8.138;2023-06-26T03:23:23;10.95;;;9.10;;
33993;SDS011;20673;48.980;8.138;2023-06-26T03:25:50;10.82;;;8.53;;
33993;SDS011;20673;48.980;8.138;2023-06-26T03:28:16;10.53;;;8.30;;
33993;SDS011;20673;48.980;8.138;2023-06-26T03:30:43;10.48;;;9.38;;
33993;SDS011;20673;48.980;8.138;2023-06-26T03:33:09;11.48;;;9.15;;
33993;SDS011;20673;48.980;8.138;2023-06-26T03:35:36;11.57;;;9.65;;
33993;SDS011;20673;48.980;8.138;2023-06-26T03:38:03;11.30;;;9.58;;
33993;SDS011;20673;48.980;8.138;2023-06-26T03:40:30;11.05;;;9.10;;
33993;SDS011;20673;48.980;8.138;2023-06-26T03:42:57;10.08;;;8.43;;
33993;SDS011;20673;48.980;8.138;2023-06-26T03:45:23;11.88;;;8.93;;
33993;SDS011;20673;48.980;8.138;2023-06-26T03:47:49;10.18;;;8.88;;
33993;SDS011;20673;48.980;8.138;2023-06-26T03:50:15;11.43;;;9.65;;
33993;SDS011;20673;48.980;8.138;2023-06-26T03:52:42;9.73;;;8.68;;
33993;SDS011;20673;48.980;8.138;2023-06-26T03:55:08;12.30;;;8.77;;
33993;SDS011;20673;48.980;8.138;2023-06-26T03:57:34;12.10;;;10.18;;
33993;SDS011;20673;48.980;8.138;2023-06-26T04:00:01;10.65;;;8.98;;
33993;SDS011;20673;48.980;8.138;2023-06-26T04:02:30;11.18;;;8.33;;
33993;SDS011;20673;48.980;8.138;2023-06-26T04:04:56;9.98;;;8.88;;
33993;SDS011;20673;48.980;8.138;2023-06-26T04:07:22;12.83;;;9.07;;
33993;SDS011;20673;48.980;8.138;2023-06-26T04:09:48;11.80;;;9.75;;
33993;SDS011;20673;48.980;8.138;2023-06-26T04:12:14;11.03;;;9.65;;
33993;SDS011;20673;48.980;8.138;2023-06-26T04:14:40;11.68;;;9.73;;
33993;SDS011;20673;48.980;8.138;2023-06-26T04:17:06;12.30;;;10.30;;
33993;SDS011;20673;48.980;8.138;2023-06-26T04:19:33;12.75;;;10.23;;
33993;SDS011;20673;48.980;8.138;2023-06-26T04:22:00;11.33;;;9.28;;
33993;SDS011;20673;48.980;8.138;2023-06-26T04:24:27;13.48;;;9.23;;
33993;SDS011;20673;48.980;8.138;2023-06-26T04:26:53;13.83;;;10.63;;
33993;SDS011;20673;48.980;8.138;2023-06-26T04:29:21;12.43;;;10.33;;
33993;SDS011;20673;48.980;8.138;2023-06-26T04:31:49;12.10;;;10.80;;
33993;SDS011;20673;48.980;8.138;2023-06-26T04:34:15;12.00;;;10.17;;
33993;SDS011;20673;48.980;8.138;2023-06-26T04:36:41;11.87;;;9.87;;
33993;SDS011;20673;48.980;8.138;2023-06-26T04:39:09;11.57;;;10.38;;
33993;SDS011;20673;48.980;8.138;2023-06-26T04:41:37;15.98;;;10.65;;
33993;SDS011;20673;48.980;8.138;2023-06-26T04:44:03;13.80;;;10.47;;
33993;SDS011;20673;48.980;8.138;2023-06-26T04:46:29;13.13;;;9.70;;
33993;SDS011;20673;48.980;8.138;2023-06-26T04:48:55;13.60;;;9.47;;
33993;SDS011;20673;48.980;8.138;2023-06-26T04:51:24;15.60;;;10.17;;
33993;SDS011;20673;48.980;8.138;2023-06-26T04:53:52;10.97;;;9.13;;
33993;SDS011;20673;48.980;8.138;2023-06-26T04:56:18;13.97;;;10.10;;
33993;SDS011;20673;48.980;8.138;2023-06-26T04:58:44;13.27;;;11.33;;
33993;SDS011;20673;48.980;8.138;2023-06-26T05:01:10;14.10;;;11.68;;
33993;SDS011;20673;48.980;8.138;2023-06-26T05:03:38;12.80;;;11.37;;
33993;SDS011;20673;48.980;8.138;2023-06-26T05:06:05;14.85;;;10.32;;
33993;SDS011;20673;48.980;8.138;2023-06-26T05:08:31;12.23;;;10.45;;
33993;SDS011;20673;48.980;8.138;2023-06-26T05:10:57;17.27;;;11.60;;
33993;SDS011;20673;48.980;8.138;2023-06-26T05:13:24;15.13;;;11.68;;
33993;SDS011;20673;48.980;8.138;2023-06-26T05:15:51;13.32;;;10.88;;
33993;SDS011;20673;48.980;8.138;2023-06-26T05:18:18;13.75;;;11.90;;
33993;SDS011;20673;48.980;8.138;2023-06-26T05:20:45;13.27;;;11.23;;
33993;SDS011;20673;48.980;8.138;2023-06-26T05:23:11;14.67;;;12.40;;
33993;SDS011;20673;48.980;8.138;2023-06-26T05:25:38;15.80;;;12.82;;
33993;SDS011;20673;48.980;8.138;2023-06-26T05:28:06;15.00;;;12.27;;
33993;SDS011;20673;48.980;8.138;2023-06-26T05:30:35;16.73;;;12.78;;
33993;SDS011;20673;48.980;8.138;2023-06-26T05:33:02;17.35;;;12.88;;
33993;SDS011;20673;48.980;8.138;2023-06-26T05:35:29;13.48;;;11.97;;
33993;SDS011;20673;48.980;8.138;2023-06-26T05:37:56;14.65;;;12.25;;
33993;SDS011;20673;48.980;8.138;2023-06-26T05:40:24;15.58;;;11.57;;
33993;SDS011;20673;48.980;8.138;2023-06-26T05:42:51;12.43;;;10.40;;
33993;SDS011;20673;48.980;8.138;2023-06-26T05:45:18;12.82;;;11.25;;
33993;SDS011;20673;48.980;8.138;2023-06-26T05:47:44;15.75;;;11.78;;
33993;SDS011;20673;48.980;8.138;2023-06-26T05:50:12;13.35;;;10.18;;
33993;SDS011;20673;48.980;8.138;2023-06-26T05:52:39;13.43;;;10.28;;
33993;SDS011;20673;48.980;8.138;2023-06-26T05:55:06;14.68;;;9.63;;
33993;SDS011;20673;48.980;8.138;2023-06-26T05:57:33;10.53;;;9.43;;
33993;SDS011;20673;48.980;8.138;2023-06-26T06:00:02;11.95;;;9.70;;
33993;SDS011;20673;48.980;8.138;2023-06-26T06:02:31;11.68;;;10.15;;
33993;SDS011;20673;48.980;8.138;2023-06-26T06:04:57;13.38;;;9.93;;
33993;SDS011;20673;48.980;8.138;2023-06-26T06:07:23;12.25;;;9.60;;
33993;SDS011;20673;48.980;8.138;2023-06-26T06:09:49;11.90;;;10.38;;
33993;SDS011;20673;48.980;8.138;2023-06-26T06:12:15;10.05;;;9.00;;
33993;SDS011;20673;48.980;8.138;2023-06-26T06:14:41;11.63;;;9.65;;
33993;SDS011;20673;48.980;8.138;2023-06-26T06:17:07;12.28;;;9.45;;
33993;SDS011;20673;48.980;8.138;2023-06-26T06:19:33;10.95;;;8.73;;
33993;SDS011;20673;48.980;8.138;2023-06-26T06:21:59;10.35;;;9.25;;
33993;SDS011;20673;48.980;8.138;2023-06-26T06:24:25;10.05;;;8.60;;
33993;SDS011;20673;48.980;8.138;2023-06-26T06:26:51;12.65;;;8.95;;
33993;SDS011;20673;48.980;8.138;2023-06-26T06:29:17;11.25;;;9.20;;
33993;SDS011;20673;48.980;8.138;2023-06-26T06:31:44;11.45;;;9.20;;
33993;SDS011;20673;48.980;8.138;2023-06-26T06:34:11;11.75;;;9.93;;
33993;SDS011;20673;48.980;8.138;2023-06-26T06:36:38;12.63;;;8.85;;
33993;SDS011;20673;48.980;8.138;2023-06-26T06:39:05;12.28;;;8.53;;
33993;SDS011;20673;48.980;8.138;2023-06-26T06:41:31;11.48;;;8.78;;
33993;SDS011;20673;48.980;8.138;2023-06-26T06:43:57;10.10;;;8.55;;
33993;SDS011;20673;48.980;8.138;2023-06-26T06:46:23;12.82;;;7.72;;
33993;SDS011;20673;48.980;8.138;2023-06-26T06:48:51;11.50;;;7.75;;
33993;SDS011;20673;48.980;8.138;2023-06-26T06:51:18;9.48;;;8.48;;
33993;SDS011;20673;48.980;8.138;2023-06-26T06:53:44;10.30;;;8.13;;
33993;SDS011;20673;48.980;8.138;2023-06-26T06:56:10;8.03;;;6.92;;
33993;SDS011;20673;48.980;8.138;2023-06-26T06:58:36;8.83;;;7.87;;
33993;SDS011;20673;48.980;8.138;2023-06-26T07:01:02;9.05;;;7.72;;
33993;SDS011;20673;48.980;8.138;2023-06-26T07:03:29;9.73;;;7.78;;
33993;SDS011;20673;48.980;8.138;2023-06-26T07:05:55;8.68;;;7.62;;
33993;SDS011;20673;48.980;8.138;2023-06-26T07:08:22;8.53;;;7.15;;
33993;SDS011;20673;48.980;8.138;2023-06-26T07:10:48;8.20;;;7.20;;
33993;SDS011;20673;48.980;8.138;2023-06-26T07:13:14;8.38;;;7.47;;
33993;SDS011;20673;48.980;8.138;2023-06-26T07:15:40;9.65;;;7.35;;
33993;SDS011;20673;48.980;8.138;2023-06-26T07:18:06;10.80;;;7.50;;
33993;SDS011;20673;48.980;8.138;2023-06-26T07:20:32;9.33;;;7.05;;
33993;SDS011;20673;48.980;8.138;2023-06-26T07:22:58;10.08;;;7.80;;
33993;SDS011;20673;48.980;8.138;2023-06-26T07:25:24;8.38;;;6.50;;
33993;SDS011;20673;48.980;8.138;2023-06-26T07:27:50;9.78;;;7.45;;
33993;SDS011;20673;48.980;8.138;2023-06-26T07:30:16;9.75;;;7.15;;
33993;SDS011;20673;48.980;8.138;2023-06-26T07:32:44;9.18;;;6.70;;
33993;SDS011;20673;48.980;8.138;2023-06-26T07:35:10;8.85;;;6.58;;
33993;SDS011;20673;48.980;8.138;2023-06-26T07:37:37;8.80;;;7.40;;
33993;SDS011;20673;48.980;8.138;2023-06-26T07:40:03;7.62;;;6.85;;
33993;SDS011;20673;48.980;8.138;2023-06-26T07:42:30;8.30;;;7.35;;
33993;SDS011;20673;48.980;8.138;2023-06-26T07:44:56;8.93;;;6.95;;
33993;SDS011;20673;48.980;8.138;2023-06-26T07:47:22;12.43;;;6.95;;
33993;SDS011;20673;48.980;8.138;2023-06-26T07:49:48;11.57;;;7.10;;
33993;SDS011;20673;48.980;8.138;2023-06-26T07:52:15;7.45;;;6.70;;
33993;SDS011;20673;48.980;8.138;2023-06-26T07:54:41;7.78;;;6.58;;
33993;SDS011;20673;48.980;8.138;2023-06-26T07:57:07;8.58;;;6.70;;
33993;SDS011;20673;48.980;8.138;2023-06-26T07:59:34;8.58;;;6.90;;
33993;SDS011;20673;48.980;8.138;2023-06-26T08:02:01;8.15;;;7.15;;
33993;SDS011;20673;48.980;8.138;2023-06-26T08:04:28;7.83;;;6.83;;
33993;SDS011;20673;48.980;8.138;2023-06-26T08:06:57;9.03;;;7.60;;
33993;SDS011;20673;48.980;8.138;2023-06-26T08:09:25;7.17;;;6.55;;
33993;SDS011;20673;48.980;8.138;2023-06-26T08:11:54;7.22;;;6.60;;
33993;SDS011;20673;48.980;8.138;2023-06-26T08:14:22;9.33;;;6.85;;
33993;SDS011;20673;48.980;8.138;2023-06-26T08:16:48;7.35;;;6.53;;
33993;SDS011;20673;48.980;8.138;2023-06-26T08:19:15;7.55;;;6.70;;
33993;SDS011;20673;48.980;8.138;2023-06-26T08:21:43;7.78;;;6.25;;
33993;SDS011;20673;48.980;8.138;2023-06-26T08:24:11;7.78;;;6.45;;
33993;SDS011;20673;48.980;8.138;2023-06-26T08:26:45;9.53;;;6.40;;
33993;SDS011;20673;48.980;8.138;2023-06-26T08:29:12;8.43;;;6.60;;
33993;SDS011;20673;48.980;8.138;2023-06-26T08:31:39;7.22;;;6.20;;
33993;SDS011;20673;48.980;8.138;2023-06-26T08:34:06;6.97;;;6.22;;
33993;SDS011;20673;48.980;8.138;2023-06-26T08:36:33;10.30;;;7.00;;
33993;SDS011;20673;48.980;8.138;2023-06-26T08:38:59;7.83;;;6.28;;
33993;SDS011;20673;48.980;8.138;2023-06-26T08:41:25;11.57;;;6.60;;
33993;SDS011;20673;48.980;8.138;2023-06-26T08:43:52;6.60;;;5.83;;
33993;SDS011;20673;48.980;8.138;2023-06-26T08:46:18;8.15;;;6.78;;
33993;SDS011;20673;48.980;8.138;2023-06-26T08:48:48;8.48;;;6.25;;
33993;SDS011;20673;48.980;8.138;2023-06-26T08:51:29;9.10;;;6.20;;
33993;SDS011;20673;48.980;8.138;2023-06-26T08:53:59;7.30;;;6.60;;
33993;SDS011;20673;48.980;8.138;2023-06-26T08:56:28;7.55;;;6.75;;
33993;SDS011;20673;48.980;8.138;2023-06-26T08:59:02;7.90;;;6.78;;
33993;SDS011;20673;48.980;8.138;2023-06-26T09:01:29;8.98;;;6.92;;
33993;SDS011;20673;48.980;8.138;2023-06-26T09:03:57;8.28;;;6.37;;
33993;SDS011;20673;48.980;8.138;2023-06-26T09:06:23;8.23;;;7.17;;
33993;SDS011;20673;48.980;8.138;2023-06-26T09:08:49;11.25;;;6.62;;
33993;SDS011;20673;48.980;8.138;2023-06-26T09:11:16;6.95;;;6.25;;
33993;SDS011;20673;48.980;8.138;2023-06-26T09:13:42;8.10;;;6.30;;
33993;SDS011;20673;48.980;8.138;2023-06-26T09:16:10;10.28;;;6.03;;
33993;SDS011;20673;48.980;8.138;2023-06-26T09:18:36;7.65;;;6.50;;
33993;SDS011;20673;48.980;8.138;2023-06-26T09:21:08;9.40;;;6.67;;
33993;SDS011;20673;48.980;8.138;2023-06-26T09:23:36;7.72;;;6.58;;
33993;SDS011;20673;48.980;8.138;2023-06-26T09:26:05;8.75;;;7.22;;
33993;SDS011;20673;48.980;8.138;2023-06-26T09:28:32;6.83;;;6.22;;
33993;SDS011;20673;48.980;8.138;2023-06-26T09:31:00;8.30;;;6.22;;
33993;SDS011;20673;48.980;8.138;2023-06-26T09:33:32;7.17;;;5.97;;
33993;SDS011;20673;48.980;8.138;2023-06-26T09:36:04;16.07;;;6.58;;
33993;SDS011;20673;48.980;8.138;2023-06-26T09:38:35;8.65;;;6.17;;
33993;SDS011;20673;48.980;8.138;2023-06-26T09:41:02;8.45;;;5.70;;
33993;SDS011;20673;48.980;8.138;2023-06-26T09:43:29;7.95;;;6.60;;
33993;SDS011;20673;48.980;8.138;2023-06-26T09:45:57;6.60;;;6.00;;
33993;SDS011;20673;48.980;8.138;2023-06-26T09:48:24;7.65;;;6.28;;
33993;SDS011;20673;48.980;8.138;2023-06-26T09:50:50;9.33;;;5.90;;
33993;SDS011;20673;48.980;8.138;2023-06-26T09:53:16;6.95;;;6.00;;
33993;SDS011;20673;48.980;8.138;2023-06-26T09:55:44;6.33;;;5.67;;
33993;SDS011;20673;48.980;8.138;2023-06-26T09:58:10;8.98;;;6.05;;
33993;SDS011;20673;48.980;8.138;2023-06-26T10:00:39;6.78;;;6.12;;
33993;SDS011;20673;48.980;8.138;2023-06-26T10:03:05;6.55;;;5.95;;
33993;SDS011;20673;48.980;8.138;2023-06-26T10:05:31;6.62;;;5.78;;
33993;SDS011;20673;48.980;8.138;2023-06-26T10:07:58;6.95;;;6.25;;
33993;SDS011;20673;48.980;8.138;2023-06-26T10:10:25;7.15;;;6.03;;
33993;SDS011;20673;48.980;8.138;2023-06-26T10:12:54;8.40;;;6.20;;
33993;SDS011;20673;48.980;8.138;2023-06-26T10:17:51;11.83;;;5.67;;
33993;SDS011;20673;48.980;8.138;2023-06-26T10:20:22;7.67;;;5.97;;
33993;SDS011;20673;48.980;8.138;2023-06-26T10:22:52;6.72;;;5.60;;
33993;SDS011;20673;48.980;8.138;2023-06-26T10:25:22;7.30;;;5.72;;
33993;SDS011;20673;48.980;8.138;2023-06-26T10:27:54;7.67;;;5.22;;
33993;SDS011;20673;48.980;8.138;2023-06-26T10:30:26;6.42;;;5.55;;
33993;SDS011;20673;48.980;8.138;2023-06-26T10:32:55;5.70;;;5.20;;
33993;SDS011;20673;48.980;8.138;2023-06-26T10:35:23;6.35;;;5.75;;
33993;SDS011;20673;48.980;8.138;2023-06-26T10:37:50;6.42;;;5.83;;
33993;SDS011;20673;48.980;8.138;2023-06-26T10:40:26;7.03;;;5.55;;
33993;SDS011;20673;48.980;8.138;2023-06-26T10:43:06;7.47;;;5.28;;
33993;SDS011;20673;48.980;8.138;2023-06-26T10:45:34;7.65;;;5.87;;
33993;SDS011;20673;48.980;8.138;2023-06-26T10:48:02;6.00;;;5.25;;
33993;SDS011;20673;48.980;8.138;2023-06-26T10:50:33;6.78;;;4.97;;
33993;SDS011;20673;48.980;8.138;2023-06-26T10:56:02;7.15;;;5.65;;
33993;SDS011;20673;48.980;8.138;2023-06-26T10:58:34;6.08;;;4.70;;
33993;SDS011;20673;48.980;8.138;2023-06-26T11:01:17;5.92;;;5.28;;
33993;SDS011;20673;48.980;8.138;2023-06-26T11:04:05;5.83;;;4.55;;
33993;SDS011;20673;48.980;8.138;2023-06-26T11:06:33;6.50;;;4.80;;
33993;SDS011;20673;48.980;8.138;2023-06-26T11:09:06;5.53;;;5.03;;
33993;SDS011;20673;48.980;8.138;2023-06-26T11:14:27;5.85;;;5.00;;
33993;SDS011;20673;48.980;8.138;2023-06-26T11:16:55;6.80;;;4.92;;
33993;SDS011;20673;48.980;8.138;2023-06-26T11:19:23;8.15;;;5.10;;
33993;SDS011;20673;48.980;8.138;2023-06-26T11:21:57;6.85;;;5.25;;
33993;SDS011;20673;48.980;8.138;2023-06-26T11:24:27;6.53;;;5.40;;
33993;SDS011;20673;48.980;8.138;2023-06-26T11:26:59;6.05;;;5.00;;
33993;SDS011;20673;48.980;8.138;2023-06-26T11:29:29;7.22;;;4.62;;
33993;SDS011;20673;48.980;8.138;2023-06-26T11:31:59;5.83;;;4.37;;
33993;SDS011;20673;48.980;8.138;2023-06-26T11:34:31;5.12;;;4.42;;
33993;SDS011;20673;48.980;8.138;2023-06-26T11:36:58;4.87;;;4.03;;
33993;SDS011;20673;48.980;8.138;2023-06-26T11:39:26;4.70;;;4.20;;
33993;SDS011;20673;48.980;8.138;2023-06-26T11:41:52;4.55;;;4.15;;
33993;SDS011;20673;48.980;8.138;2023-06-26T11:44:19;5.20;;;3.90;;
33993;SDS011;20673;48.980;8.138;2023-06-26T11:46:47;7.22;;;3.52;;
33993;SDS011;20673;48.980;8.138;2023-06-26T11:49:17;4.05;;;3.62;;
33993;SDS011;20673;48.980;8.138;2023-06-26T11:51:43;5.33;;;3.77;;
33993;SDS011;20673;48.980;8.138;2023-06-26T11:54:12;4.70;;;3.95;;
33993;SDS011;20673;48.980;8.138;2023-06-26T11:56:40;4.60;;;3.47;;
33993;SDS011;20673;48.980;8.138;2023-06-26T11:59:06;5.35;;;4.00;;
33993;SDS011;20673;48.980;8.138;2023-06-26T12:01:36;4.28;;;3.87;;
33993;SDS011;20673;48.980;8.138;2023-06-26T12:04:08;5.87;;;3.70;;
33993;SDS011;20673;48.980;8.138;2023-06-26T12:06:37;7.50;;;3.00;;
33993;SDS011;20673;48.980;8.138;2023-06-26T12:09:09;6.50;;;3.70;;
33993;SDS011;20673;48.980;8.138;2023-06-26T12:11:38;5.85;;;3.95;;
33993;SDS011;20673;48.980;8.138;2023-06-26T12:14:08;4.75;;;3.65;;
33993;SDS011;20673;48.980;8.138;2023-06-26T12:16:35;6.60;;;3.98;;
33993;SDS011;20673;48.980;8.138;2023-06-26T12:19:05;5.75;;;3.75;;
33993;SDS011;20673;48.980;8.138;2023-06-26T12:24:06;3.80;;;3.40;;
33993;SDS011;20673;48.980;8.138;2023-06-26T12:26:34;4.05;;;3.50;;
33993;SDS011;20673;48.980;8.138;2023-06-26T12:29:04;4.40;;;3.47;;
33993;SDS011;20673;48.980;8.138;2023-06-26T12:31:31;6.00;;;3.58;;
33993;SDS011;20673;48.980;8.138;2023-06-26T12:33:58;9.50;;;3.22;;
33993;SDS011;20673;48.980;8.138;2023-06-26T12:36:26;5.85;;;3.12;;
33993;SDS011;20673;48.980;8.138;2023-06-26T12:38:52;3.47;;;3.17;;
33993;SDS011;20673;48.980;8.138;2023-06-26T12:41:19;4.70;;;3.00;;
33993;SDS011;20673;48.980;8.138;2023-06-26T12:43:55;5.87;;;3.50;;
33993;SDS011;20673;48.980;8.138;2023-06-26T12:46:33;5.87;;;4.12;;
33993;SDS011;20673;48.980;8.138;2023-06-26T12:49:01;6.78;;;3.52;;
33993;SDS011;20673;48.980;8.138;2023-06-26T12:51:28;7.78;;;4.05;;
33993;SDS011;20673;48.980;8.138;2023-06-26T12:53:54;9.08;;;3.98;;
33993;SDS011;20673;48.980;8.138;2023-06-26T12:56:20;4.45;;;3.72;;
33993;SDS011;20673;48.980;8.138;2023-06-26T12:58:46;6.70;;;4.40;;
33993;SDS011;20673;48.980;8.138;2023-06-26T13:01:12;6.90;;;4.40;;
33993;SDS011;20673;48.980;8.138;2023-06-26T13:03:43;6.07;;;4.63;;
33993;SDS011;20673;48.980;8.138;2023-06-26T13:06:09;6.10;;;4.65;;
33993;SDS011;20673;48.980;8.138;2023-06-26T13:08:35;6.42;;;4.47;;
33993;SDS011;20673;48.980;8.138;2023-06-26T13:11:02;10.25;;;5.62;;
33993;SDS011;20673;48.980;8.138;2023-06-26T13:13:28;11.78;;;5.80;;
33993;SDS011;20673;48.980;8.138;2023-06-26T13:15:54;9.78;;;5.75;;
33993;SDS011;20673;48.980;8.138;2023-06-26T13:18:20;7.62;;;5.53;;
33993;SDS011;20673;48.980;8.138;2023-06-26T13:20:47;9.23;;;6.33;;
33993;SDS011;20673;48.980;8.138;2023-06-26T13:23:13;8.28;;;6.30;;
33993;SDS011;20673;48.980;8.138;2023-06-26T13:25:39;9.63;;;6.37;;
33993;SDS011;20673;48.980;8.138;2023-06-26T13:28:05;7.25;;;6.30;;
33993;SDS011;20673;48.980;8.138;2023-06-26T13:30:31;9.48;;;6.05;;
33993;SDS011;20673;48.980;8.138;2023-06-26T13:32:57;9.33;;;6.15;;
33993;SDS011;20673;48.980;8.138;2023-06-26T13:35:23;7.80;;;5.78;;
33993;SDS011;20673;48.980;8.138;2023-06-26T13:37:50;8.85;;;6.45;;
33993;SDS011;20673;48.980;8.138;2023-06-26T13:40:16;9.08;;;6.15;;
33993;SDS011;20673;48.980;8.138;2023-06-26T13:42:42;8.43;;;6.03;;
33993;SDS011;20673;48.980;8.138;2023-06-26T13:45:09;7.47;;;6.42;;
33993;SDS011;20673;48.980;8.138;2023-06-26T13:47:37;9.43;;;6.22;;
33993;SDS011;20673;48.980;8.138;2023-06-26T13:50:05;7.67;;;5.92;;
33993;SDS011;20673;48.980;8.138;2023-06-26T13:52:33;7.62;;;5.78;;
33993;SDS011;20673;48.980;8.138;2023-06-26T13:54:59;11.12;;;6.42;;
33993;SDS011;20673;48.980;8.138;2023-06-26T13:57:25;6.37;;;5.00;;
33993;SDS011;20673;48.980;8.138;2023-06-26T13:59:53;6.90;;;5.47;;
33993;SDS011;20673;48.980;8.138;2023-06-26T14:02:19;8.73;;;5.35;;
33993;SDS011;20673;48.980;8.138;2023-06-26T14:04:45;11.03;;;5.62;;
33993;SDS011;20673;48.980;8.138;2023-06-26T14:07:11;9.28;;;5.97;;
33993;SDS011;20673;48.980;8.138;2023-06-26T14:09:37;10.20;;;6.08;;
33993;SDS011;20673;48.980;8.138;2023-06-26T14:12:04;10.75;;;6.35;;
33993;SDS011;20673;48.980;8.138;2023-06-26T14:14:31;7.45;;;5.72;;
33993;SDS011;20673;48.980;8.138;2023-06-26T14:16:57;7.37;;;4.85;;
33993;SDS011;20673;48.980;8.138;2023-06-26T14:19:24;6.58;;;4.78;;
33993;SDS011;20673;48.980;8.138;2023-06-26T14:21:51;8.13;;;4.97;;
33993;SDS011;20673;48.980;8.138;2023-06-26T14:24:18;7.33;;;4.72;;
33993;SDS011;20673;48.980;8.138;2023-06-26T14:26:44;6.22;;;4.45;;
33993;SDS011;20673;48.980;8.138;2023-06-26T14:29:10;6.60;;;4.25;;
33993;SDS011;20673;48.980;8.138;2023-06-26T14:31:36;5.90;;;3.33;;
33993;SDS011;20673;48.980;8.138;2023-06-26T14:34:02;5.35;;;3.50;;
33993;SDS011;20673;48.980;8.138;2023-06-26T14:36:28;9.93;;;3.25;;
33993;SDS011;20673;48.980;8.138;2023-06-26T14:38:56;5.30;;;2.87;;
33993;SDS011;20673;48.980;8.138;2023-06-26T14:41:22;4.47;;;2.60;;
33993;SDS011;20673;48.980;8.138;2023-06-26T14:43:48;4.67;;;1.90;;
33993;SDS011;20673;48.980;8.138;2023-06-26T14:46:14;3.10;;;2.10;;
33993;SDS011;20673;48.980;8.138;2023-06-26T14:48:40;2.30;;;1.70;;
33993;SDS011;20673;48.980;8.138;2023-06-26T14:51:07;7.58;;;2.17;;
33993;SDS011;20673;48.980;8.138;2023-06-26T14:53:33;2.50;;;1.45;;
33993;SDS011;20673;48.980;8.138;2023-06-26T14:55:59;6.03;;;2.15;;
33993;SDS011;20673;48.980;8.138;2023-06-26T14:58:25;3.12;;;1.75;;
33993;SDS011;20673;48.980;8.138;2023-06-26T15:00:51;4.65;;;1.90;;
33993;SDS011;20673;48.980;8.138;2023-06-26T15:03:17;3.80;;;1.30;;